Time;durP1;ratioP1;P1;durP2;ratioP2;P2;SDS_P1;SDS_P2;PMS_P1;PMS_P2;Temp;Humidity;BMP_temperature;BMP_pressure;BME280_temperature;BME280_humidity;BME280_pressure;Samples;Min_cycle;Max_cycle;Signal;HPM_P1;HPM_P2
2022/07/23 00:00:55;;;;;;;5.13;3.17;;;;;;;13.93;100.00;101864.66;10424178;28;20056;-67
2022/07/23 00:05:56;;;;;;;7.70;3.35;;;;;;;13.70;100.00;101848.22;10406433;28;20129;-68
2022/07/23 00:10:56;;;;;;;7.00;3.83;;;;;;;13.90;100.00;101865.16;10422626;28;20045;-69
2022/07/23 00:15:57;;;;;;;11.50;4.30;;;;;;;13.91;100.00;101861.31;10422651;28;20037;-69
2022/07/23 00:20:57;;;;;;;4.57;3.13;;;;;;;13.93;100.00;101863.78;10422029;28;20038;-70
2022/07/23 00:25:58;;;;;;;12.05;4.15;;;;;;;13.92;100.00;101865.72;10421570;28;20049;-69
2022/07/23 00:30:58;;;;;;;4.43;2.97;;;;;;;13.92;100.00;101862.97;10422662;28;20045;-68
2022/07/23 00:35:59;;;;;;;6.78;3.47;;;;;;;13.95;100.00;101866.31;10421746;28;20044;-67
2022/07/23 00:40:59;;;;;;;5.65;3.45;;;;;;;13.93;100.00;101859.13;10421817;28;20061;-67
2022/07/23 00:46:00;;;;;;;4.95;3.25;;;;;;;13.89;100.00;101860.72;10419544;28;20938;-67
2022/07/23 00:51:00;;;;;;;6.20;3.50;;;;;;;13.83;100.00;101866.41;10422330;28;20041;-67
2022/07/23 00:56:01;;;;;;;7.22;3.10;;;;;;;13.67;100.00;101860.63;10421086;28;20061;-67
2022/07/23 01:01:01;;;;;;;7.95;4.13;;;;;;;13.51;100.00;101856.75;10404656;28;20057;-66
2022/07/23 01:06:02;;;;;;;11.23;3.80;;;;;;;13.36;100.00;101850.97;10404687;28;20068;-67
2022/07/23 01:11:02;;;;;;;7.85;3.95;;;;;;;13.22;100.00;101858.69;10418650;28;20469;-67
2022/07/23 01:16:03;;;;;;;6.00;3.45;;;;;;;13.09;100.00;101857.06;10400974;28;20048;-68
2022/07/23 01:21:04;;;;;;;8.73;3.92;;;;;;;12.97;100.00;101850.75;10417767;28;20061;-67
2022/07/23 01:26:04;;;;;;;9.52;4.50;;;;;;;12.91;100.00;101857.25;10435112;28;20037;-67
2022/07/23 01:31:05;;;;;;;8.75;4.63;;;;;;;12.80;100.00;101849.88;10421387;28;20048;-65
2022/07/23 01:36:05;;;;;;;5.57;3.80;;;;;;;12.70;100.00;101845.78;10420442;28;20087;-69
2022/07/23 01:41:06;;;;;;;11.07;4.07;;;;;;;12.64;100.00;101840.41;10418905;28;20364;-69
2022/07/23 01:46:06;;;;;;;9.82;4.53;;;;;;;12.63;100.00;101847.88;10419569;28;20036;-66
2022/07/23 01:51:07;;;;;;;7.00;3.88;;;;;;;12.62;100.00;101837.88;10418758;28;20034;-67
2022/07/23 01:56:07;;;;;;;6.90;4.15;;;;;;;12.61;100.00;101836.22;10416755;28;20420;-67
2022/07/23 02:01:08;;;;;;;7.13;3.95;;;;;;;12.51;100.00;101823.03;10435383;28;20460;-67
2022/07/23 02:06:08;;;;;;;4.28;3.40;;;;;;;12.42;100.00;101820.88;10418878;28;20061;-67
2022/07/23 02:11:09;;;;;;;6.55;4.13;;;;;;;12.28;100.00;101821.16;10418434;28;20033;-66
2022/07/23 02:16:09;;;;;;;6.50;3.90;;;;;;;12.18;100.00;101814.59;10428262;28;20054;-66
2022/07/23 02:21:10;;;;;;;8.68;4.35;;;;;;;12.09;100.00;101811.34;10434655;28;20037;-67
2022/07/23 02:26:10;;;;;;;7.38;3.95;;;;;;;12.04;100.00;101802.94;10417831;28;20025;-67
2022/07/23 02:31:11;;;;;;;8.23;4.57;;;;;;;12.03;100.00;101792.97;10417795;28;20128;-67
2022/07/23 02:36:11;;;;;;;6.80;4.57;;;;;;;11.97;100.00;101799.47;10417258;28;20029;-67
2022/07/23 02:41:12;;;;;;;8.40;4.15;;;;;;;11.90;100.00;101800.41;10417165;28;20091;-67
2022/07/23 02:46:12;;;;;;;8.15;4.45;;;;;;;11.83;100.00;101801.63;10419247;28;20104;-66
2022/07/23 02:51:13;;;;;;;11.20;4.53;;;;;;;11.76;100.00;101810.00;10423769;28;20088;-66
2022/07/23 02:56:13;;;;;;;6.90;4.20;;;;;;;11.66;100.00;101801.50;10423279;28;20037;-62
2022/07/23 03:01:14;;;;;;;8.95;4.78;;;;;;;11.49;100.00;101796.69;10427066;28;20045;-67
2022/07/23 03:06:14;;;;;;;8.43;5.07;;;;;;;11.57;100.00;101811.19;10425081;28;20037;-67
2022/07/23 03:11:15;;;;;;;9.77;6.03;;;;;;;11.51;100.00;101821.25;10424948;28;20064;-67
2022/07/23 03:16:15;;;;;;;8.77;5.43;;;;;;;11.47;100.00;101818.13;10424967;28;20029;-66
2022/07/23 03:21:16;;;;;;;9.25;5.68;;;;;;;11.45;100.00;101823.06;10440042;28;20048;-67
2022/07/23 03:26:16;;;;;;;8.50;5.28;;;;;;;11.45;100.00;101817.53;10424704;28;20080;-67
2022/07/23 03:31:17;;;;;;;13.00;5.93;;;;;;;11.48;100.00;101827.25;10426911;28;20041;-68
2022/07/23 03:36:17;;;;;;;10.55;6.05;;;;;;;11.53;100.00;101824.59;10423957;28;20036;-69
2022/07/23 03:41:19;;;;;;;7.55;5.80;;;;;;;11.52;100.00;101809.97;10424309;28;20050;-69
2022/07/23 03:46:19;;;;;;;9.60;5.65;;;;;;;11.52;100.00;101809.97;10424003;28;20057;-69
2022/07/23 03:51:19;;;;;;;10.07;6.47;;;;;;;11.53;100.00;101819.09;10422934;28;20060;-67
2022/07/23 03:56:20;;;;;;;12.80;6.00;;;;;;;11.56;100.00;101824.13;10424444;28;20029;-66
2022/07/23 04:01:20;;;;;;;12.60;6.43;;;;;;;11.62;100.00;101816.84;10423784;28;20045;-66
2022/07/23 04:06:21;;;;;;;10.23;6.00;;;;;;;11.58;100.00;101810.13;10423273;28;20052;-67
2022/07/23 04:11:21;;;;;;;12.43;6.07;;;;;;;11.56;100.00;101806.75;10438739;28;20037;-66
2022/07/23 04:16:22;;;;;;;10.15;6.28;;;;;;;11.59;100.00;101792.47;10423793;28;20030;-66
2022/07/23 04:21:23;;;;;;;10.80;6.65;;;;;;;11.62;100.00;101794.78;10422787;28;20048;-65
2022/07/23 04:26:23;;;;;;;11.40;6.43;;;;;;;11.83;100.00;101810.72;10408314;28;20045;-66
2022/07/23 04:31:24;;;;;;;14.80;7.70;;;;;;;12.04;100.00;101814.00;10421400;28;20046;-67
2022/07/23 04:36:24;;;;;;;13.43;8.68;;;;;;;12.24;100.00;101824.66;10412943;28;20474;-67
2022/07/23 04:41:25;;;;;;;15.63;7.05;;;;;;;12.39;100.00;101818.63;10421170;28;20041;-67
2022/07/23 04:46:26;;;;;;;13.40;7.25;;;;;;;12.54;100.00;101813.41;10412574;28;20040;-66
2022/07/23 04:51:26;;;;;;;12.85;6.93;;;;;;;12.65;100.00;101815.31;10422236;28;21455;-67
2022/07/23 04:56:27;;;;;;;15.60;6.95;;;;;;;12.87;100.00;101822.91;10422340;28;20038;-66
2022/07/23 05:01:27;;;;;;;10.25;5.93;;;;;;;13.01;100.00;101817.94;10422235;28;20060;-66
2022/07/23 05:06:27;;;;;;;11.15;6.53;;;;;;;13.18;100.00;101815.19;10411920;28;20049;-69
2022/07/23 05:11:28;;;;;;;8.98;6.22;;;;;;;13.29;100.00;101825.38;10377749;28;20068;-65
2022/07/23 05:16:28;;;;;;;12.00;6.15;;;;;;;13.43;100.00;101814.84;10379045;28;20030;-67
2022/07/23 05:21:29;;;;;;;8.50;5.80;;;;;;;13.59;100.00;101818.69;10380736;28;20038;-67
2022/07/23 05:26:29;;;;;;;10.85;5.55;;;;;;;13.75;100.00;101828.94;10399119;28;20057;-66
2022/07/23 05:31:30;;;;;;;6.28;4.88;;;;;;;13.88;100.00;101834.09;10421567;28;20056;-67
2022/07/23 05:36:31;;;;;;;11.85;5.05;;;;;;;14.05;100.00;101838.78;10378524;28;20600;-67
2022/07/23 05:41:32;;;;;;;10.32;5.03;;;;;;;14.25;100.00;101838.25;10378171;28;20069;-67
2022/07/23 05:46:32;;;;;;;8.15;4.53;;;;;;;14.38;100.00;101837.03;10379425;28;20038;-61
2022/07/23 05:51:33;;;;;;;8.23;4.60;;;;;;;14.54;100.00;101839.75;10351456;28;20049;-67
2022/07/23 05:56:33;;;;;;;8.52;4.70;;;;;;;14.62;100.00;101841.28;10336287;28;20041;-67
2022/07/23 06:01:34;;;;;;;10.55;4.13;;;;;;;14.87;100.00;101853.78;10365756;28;20042;-66
2022/07/23 06:06:34;;;;;;;5.72;3.88;;;;;;;15.07;100.00;101840.13;10376712;28;20041;-67
2022/07/23 06:11:34;;;;;;;7.68;3.28;;;;;;;15.34;100.00;101848.44;10377831;28;20069;-67
2022/07/23 06:16:35;;;;;;;4.88;3.38;;;;;;;15.44;100.00;101849.63;10397892;28;20044;-67
2022/07/23 06:21:35;;;;;;;4.70;3.10;;;;;;;15.56;100.00;101847.53;10418238;28;20037;-69
2022/07/23 06:26:36;;;;;;;7.40;2.83;;;;;;;15.80;100.00;101853.59;10427381;28;20240;-67
2022/07/23 06:31:36;;;;;;;8.65;2.38;;;;;;;15.94;100.00;101837.31;10428005;28;20049;-65
2022/07/23 06:36:37;;;;;;;2.83;2.10;;;;;;;16.09;100.00;101844.91;10440089;28;20033;-67
2022/07/23 06:41:37;;;;;;;5.90;1.80;;;;;;;16.30;100.00;101852.25;10428103;28;20571;-67
2022/07/23 06:46:38;;;;;;;5.50;1.90;;;;;;;16.39;100.00;101860.09;10426189;28;20034;-68
2022/07/23 06:51:38;;;;;;;2.35;1.75;;;;;;;16.42;100.00;101862.34;10424046;28;20046;-67
2022/07/23 06:56:39;;;;;;;2.88;1.35;;;;;;;16.63;100.00;101866.88;10424960;28;20033;-67
2022/07/23 07:01:39;;;;;;;3.70;1.88;;;;;;;17.04;100.00;101857.91;10425503;28;20041;-67
2022/07/23 07:06:40;;;;;;;9.68;2.22;;;;;;;17.41;100.00;101866.03;10423648;28;20034;-66
2022/07/23 07:11:40;;;;;;;3.58;1.40;;;;;;;17.57;100.00;101869.69;10425491;28;20037;-67
2022/07/23 07:16:41;;;;;;;5.63;0.90;;;;;;;17.72;100.00;101880.00;10425279;28;20045;-67
2022/07/23 07:21:41;;;;;;;4.40;1.05;;;;;;;17.85;100.00;101886.97;10425599;28;20049;-70
2022/07/23 07:26:42;;;;;;;3.15;0.88;;;;;;;17.76;100.00;101886.69;10424379;28;20034;-67
2022/07/23 07:31:42;;;;;;;4.68;1.75;;;;;;;17.77;100.00;101885.53;10423878;28;20041;-67
2022/07/23 07:36:43;;;;;;;2.50;1.05;;;;;;;17.30;100.00;101797.53;10421025;28;20037;-68
2022/07/23 07:41:43;;;;;;;3.20;0.70;;;;;;;18.01;100.00;101893.38;10423519;28;20033;-67
2022/07/23 07:46:44;;;;;;;2.47;0.55;;;;;;;17.94;100.00;101897.28;10423909;28;20045;-68
2022/07/23 07:51:45;;;;;;;2.17;0.70;;;;;;;18.07;100.00;101903.41;10422823;28;20044;-68
2022/07/23 07:56:45;;;;;;;4.13;0.80;;;;;;;18.21;100.00;101890.59;10425518;28;20053;-66
2022/07/23 08:01:46;;;;;;;0.70;0.43;;;;;;;18.44;100.00;101900.28;10424147;28;20057;-68
2022/07/23 08:06:46;;;;;;;1.98;0.30;;;;;;;18.49;100.00;101899.44;10424743;28;20064;-69
2022/07/23 08:11:47;;;;;;;1.85;0.30;;;;;;;18.68;100.00;101908.00;10423003;28;20044;-68
2022/07/23 08:16:47;;;;;;;0.98;0.38;;;;;;;19.12;100.00;101899.78;10424170;28;20041;-68
2022/07/23 08:21:48;;;;;;;1.48;0.22;;;;;;;18.98;100.00;101901.53;10423123;28;20041;-68
2022/07/23 08:26:48;;;;;;;1.42;0.30;;;;;;;18.88;100.00;101893.19;10425191;28;20068;-69
2022/07/23 08:31:48;;;;;;;2.03;0.30;;;;;;;19.14;100.00;101886.38;10456003;28;20038;-69
2022/07/23 08:36:49;;;;;;;5.50;0.52;;;;;;;18.67;100.00;101850.56;10423286;28;20040;-68
2022/07/23 08:41:50;;;;;;;0.55;0.30;;;;;;;18.69;100.00;101879.84;10423289;28;20041;-68
2022/07/23 08:46:50;;;;;;;0.70;0.20;;;;;;;19.12;100.00;101888.63;10421756;28;20409;-69
2022/07/23 08:51:51;;;;;;;2.70;0.68;;;;;;;19.85;100.00;101883.38;10419896;28;20042;-62
2022/07/23 08:56:51;;;;;;;13.77;1.00;;;;;;;20.51;100.00;101885.50;10438055;28;20165;-69
2022/07/23 09:01:51;;;;;;;0.77;0.20;;;;;;;20.80;92.98;101867.03;10421764;28;20107;-69
2022/07/23 09:06:52;;;;;;;0.65;0.30;;;;;;;20.28;96.07;101881.56;10422131;28;20394;-71
2022/07/23 09:12:06;;;;;;;1.98;0.82;;;;;;;19.84;89.68;101865.78;10420447;28;20045;-69
2022/07/23 09:17:24;;;;;;;1.15;0.35;;;;;;;19.56;93.39;101886.94;10418821;28;20441;-68
2022/07/23 09:22:28;;;;;;;0.50;0.30;;;;;;;20.36;88.70;101868.88;10419889;28;20052;-69
2022/07/23 09:28:07;;;;;;;0.57;0.20;;;;;;;20.84;89.71;101880.13;10421659;28;20430;-69
2022/07/23 09:33:11;;;;;;;0.93;0.30;;;;;;;20.21;94.45;101892.25;10368881;28;20042;-68
2022/07/23 09:38:12;;;;;;;3.00;0.28;;;;;;;20.30;92.96;101887.72;10382500;28;20042;-69
2022/07/23 09:43:14;;;;;;;2.22;0.40;;;;;;;20.46;90.43;101884.72;10392262;28;20130;-69
2022/07/23 09:48:16;;;;;;;1.23;0.80;;;;;;;20.52;90.47;101875.16;10399895;28;20051;-68
2022/07/23 09:53:26;;;;;;;1.23;0.55;;;;;;;20.30;90.73;101884.91;10433419;28;20030;-69
2022/07/23 09:58:29;;;;;;;2.50;0.40;;;;;;;20.30;89.67;101884.91;10416908;28;20073;-69
2022/07/23 10:03:30;;;;;;;3.33;0.50;;;;;;;20.16;89.46;101872.75;10416581;28;20064;-70
2022/07/23 10:08:30;;;;;;;2.55;0.47;;;;;;;20.82;88.77;101878.75;10431281;28;20041;-69
2022/07/23 10:18:50;;;;;;;1.23;0.30;;;;;;;21.48;82.75;101875.03;10430567;28;20033;-69
2022/07/23 10:24:05;;;;;;;0.90;0.30;;;;;;;20.97;83.61;101875.75;10416479;28;20041;-70
2022/07/23 10:29:12;;;;;;;1.27;0.35;;;;;;;21.19;86.97;101888.31;10416196;28;20091;-69
2022/07/23 10:34:30;;;;;;;3.70;0.45;;;;;;;20.93;81.84;101874.69;10416284;28;20084;-69
2022/07/23 10:39:32;;;;;;;1.20;0.30;;;;;;;20.89;83.82;101885.63;10416333;28;20401;-69
2022/07/23 10:44:42;;;;;;;1.98;0.47;;;;;;;21.09;81.44;101890.13;10375075;28;20042;-69
2022/07/23 10:49:42;;;;;;;1.20;0.43;;;;;;;21.92;80.75;101881.31;10413488;28;20064;-68
2022/07/23 10:54:44;;;;;;;3.35;0.65;;;;;;;22.75;79.10;101881.44;10414932;28;20037;-69
2022/07/23 11:00:00;;;;;;;0.55;0.32;;;;;;;23.27;75.02;101878.38;10416740;28;20642;-69
2022/07/23 11:05:03;;;;;;;1.25;0.30;;;;;;;22.54;75.36;101883.84;10416962;28;20060;-68
2022/07/23 11:10:04;;;;;;;1.50;0.40;;;;;;;22.44;76.03;101884.88;10416452;28;20051;-68
2022/07/23 11:15:06;;;;;;;2.47;0.57;;;;;;;22.26;79.29;101905.41;10448980;28;20034;-69
2022/07/23 11:20:09;;;;;;;3.22;0.57;;;;;;;21.78;79.02;101900.91;10438607;28;20034;-70
2022/07/23 11:25:11;;;;;;;2.95;0.40;;;;;;;21.74;79.37;101905.44;10424228;28;20083;-68
2022/07/23 11:30:26;;;;;;;1.52;0.50;;;;;;;21.69;80.33;101911.97;10437259;28;20041;-69
2022/07/23 11:35:27;;;;;;;1.35;0.50;;;;;;;21.79;84.40;101913.78;10424633;28;20049;-68
2022/07/23 11:40:28;;;;;;;2.90;0.40;;;;;;;21.45;83.62;101908.44;10421228;28;20048;-70
2022/07/23 11:45:33;;;;;;;1.50;0.60;;;;;;;21.72;83.80;101918.94;10421722;28;20088;-68
2022/07/23 11:50:34;;;;;;;5.53;0.68;;;;;;;22.25;81.65;101901.78;10422849;28;20030;-68
2022/07/23 11:55:34;;;;;;;1.70;0.88;;;;;;;21.89;79.77;101909.97;10422885;28;20033;-69
2022/07/23 12:00:35;;;;;;;3.22;0.88;;;;;;;21.62;83.40;101925.56;10421598;28;20042;-68
2022/07/23 12:05:36;;;;;;;4.00;0.93;;;;;;;22.04;82.58;101920.09;10423320;28;20038;-68
2022/07/23 12:10:43;;;;;;;3.22;0.70;;;;;;;21.96;80.87;101918.81;10420645;28;20029;-69
2022/07/23 12:15:45;;;;;;;6.32;0.85;;;;;;;21.32;82.59;101932.41;10421257;28;20092;-68
2022/07/23 12:20:49;;;;;;;5.00;1.67;;;;;;;21.36;86.09;101933.47;10421677;28;20045;-69
2022/07/23 12:25:50;;;;;;;4.85;1.00;;;;;;;21.56;86.19;101940.78;10420988;28;20048;-69
2022/07/23 12:30:51;;;;;;;4.50;1.13;;;;;;;21.38;86.38;101947.16;10421524;28;20408;-69
2022/07/23 12:35:54;;;;;;;5.00;0.98;;;;;;;21.39;87.28;101943.22;10420324;28;20045;-68
2022/07/23 12:40:59;;;;;;;1.90;0.90;;;;;;;22.10;85.88;101942.13;10420218;28;20153;-69
2022/07/23 12:46:07;;;;;;;3.67;1.05;;;;;;;23.82;79.33;101914.75;10420829;28;20551;-68
2022/07/23 12:51:18;;;;;;;2.08;0.90;;;;;;;24.48;75.29;101909.34;10386121;28;20532;-69
2022/07/23 12:56:19;;;;;;;1.83;0.88;;;;;;;23.90;75.69;101914.00;10358054;28;20041;-69
2022/07/23 13:01:20;;;;;;;1.67;0.95;;;;;;;23.23;77.56;101925.09;10388972;28;20501;-69
2022/07/23 13:06:20;;;;;;;4.43;1.50;;;;;;;22.75;79.70;101929.19;10419934;28;20306;-69
2022/07/23 13:11:21;;;;;;;1.00;0.70;;;;;;;22.61;79.51;101931.97;10418803;28;20037;-69
2022/07/23 13:16:21;;;;;;;5.00;1.85;;;;;;;23.08;80.19;101932.72;10400778;28;20048;-68
2022/07/23 13:21:22;;;;;;;3.05;1.05;;;;;;;24.27;76.50;101911.91;10417894;28;20054;-68
2022/07/23 13:26:23;;;;;;;1.55;0.90;;;;;;;24.38;74.52;101918.91;10417551;28;20072;-68
2022/07/23 13:31:23;;;;;;;3.53;1.52;;;;;;;23.87;75.97;101925.88;10418735;28;20281;-69
2022/07/23 13:36:24;;;;;;;3.25;0.85;;;;;;;23.35;77.87;101936.63;10409621;28;20060;-68
2022/07/23 13:41:24;;;;;;;4.45;0.80;;;;;;;23.06;78.31;101934.19;10417536;28;20037;-69
2022/07/23 13:46:25;;;;;;;3.70;0.80;;;;;;;23.11;79.38;101932.09;10418495;28;20486;-67
2022/07/23 13:51:25;;;;;;;2.20;0.80;;;;;;;24.70;74.09;101902.88;10417893;28;20564;-69
2022/07/23 13:56:26;;;;;;;2.15;0.70;;;;;;;24.67;73.38;101903.50;10418391;28;20041;-67
2022/07/23 14:01:26;;;;;;;3.25;1.60;;;;;;;25.07;72.21;101894.97;10417322;28;20041;-69
2022/07/23 14:06:27;;;;;;;1.60;0.82;;;;;;;25.91;69.43;101901.38;10417304;28;20044;-69
2022/07/23 14:11:27;;;;;;;1.90;0.70;;;;;;;26.98;65.87;101884.53;10416748;28;20112;-69
2022/07/23 14:16:28;;;;;;;2.47;0.90;;;;;;;27.33;64.19;101871.03;10417723;28;20049;-69
2022/07/23 14:21:28;;;;;;;1.52;0.70;;;;;;;27.63;64.56;101872.94;10417082;28;20052;-70
2022/07/23 14:26:29;;;;;;;4.50;0.63;;;;;;;27.15;62.55;101870.28;10418242;28;20033;-70
2022/07/23 14:31:29;;;;;;;1.58;0.60;;;;;;;27.68;65.23;101878.34;10397508;28;20122;-69
2022/07/23 14:36:30;;;;;;;1.90;0.50;;;;;;;27.91;61.33;101879.66;10375099;28;20045;-68
2022/07/23 14:41:31;;;;;;;1.58;0.60;;;;;;;27.50;63.88;101892.66;10372681;28;20071;-69
2022/07/23 14:46:31;;;;;;;1.08;0.55;;;;;;;28.10;60.50;101869.81;10380125;28;20046;-64
2022/07/23 14:51:32;;;;;;;1.60;0.70;;;;;;;29.14;59.03;101862.75;10381762;28;21221;-70
2022/07/23 14:56:33;;;;;;;5.68;0.65;;;;;;;28.50;57.62;101860.69;10414183;28;20481;-71
2022/07/23 15:01:34;;;;;;;4.65;1.10;;;;;;;26.51;61.71;101881.78;10424613;28;20072;-70
2022/07/23 15:06:34;;;;;;;2.08;1.15;;;;;;;24.88;65.82;101892.47;10417439;28;20037;-69
2022/07/23 15:11:36;;;;;;;2.00;0.60;;;;;;;25.53;66.28;101887.94;10423397;28;20042;-69
2022/07/23 15:16:36;;;;;;;4.90;1.58;;;;;;;27.44;62.47;101879.09;10423822;28;20497;-70
2022/07/23 15:21:37;;;;;;;1.13;0.60;;;;;;;27.98;59.97;101868.59;10422278;28;20104;-71
2022/07/23 15:26:37;;;;;;;4.53;0.80;;;;;;;26.18;62.82;101885.22;10423322;28;20337;-70
2022/07/23 15:31:38;;;;;;;2.35;0.70;;;;;;;24.96;67.78;101905.75;10423644;28;20033;-70
2022/07/23 15:36:38;;;;;;;1.80;0.70;;;;;;;24.12;69.09;101909.47;10422741;28;20038;-70
2022/07/23 15:41:39;;;;;;;2.83;0.82;;;;;;;23.73;70.48;101908.19;10422340;28;20041;-70
2022/07/23 15:46:39;;;;;;;1.70;0.70;;;;;;;24.75;71.25;101905.53;10422624;28;20037;-70
2022/07/23 15:51:39;;;;;;;1.83;1.10;;;;;;;25.05;66.76;101846.59;10437319;28;20033;-67
2022/07/23 15:56:40;;;;;;;11.02;9.75;;;;;;;25.84;64.63;101850.25;10437489;28;20099;-69
2022/07/23 16:01:40;;;;;;;5.80;3.90;;;;;;;27.49;64.07;101891.03;10408389;28;20332;-70
2022/07/23 16:06:41;;;;;;;2.80;1.00;;;;;;;27.26;61.59;101875.56;10421092;28;20079;-70
2022/07/23 16:11:41;;;;;;;1.95;0.80;;;;;;;25.46;67.01;101904.50;10435932;28;20033;-70
2022/07/23 16:16:42;;;;;;;3.35;1.33;;;;;;;24.75;70.03;101899.88;10421422;28;20033;-69
2022/07/23 16:21:42;;;;;;;2.30;0.82;;;;;;;24.73;70.73;101902.19;10421068;28;20124;-69
2022/07/23 16:26:43;;;;;;;2.83;1.17;;;;;;;25.35;70.01;101886.28;10419767;28;20025;-69
2022/07/23 16:31:43;;;;;;;2.42;0.80;;;;;;;24.95;69.22;101887.19;10436291;28;20049;-70
2022/07/23 16:36:44;;;;;;;3.90;0.70;;;;;;;24.25;69.40;101874.00;10420145;28;20617;-70
2022/07/23 16:41:45;;;;;;;1.50;0.57;;;;;;;23.30;72.71;101894.63;10419900;28;20033;-69
2022/07/23 16:46:45;;;;;;;2.65;1.40;;;;;;;22.62;76.41;101910.38;10420115;28;20037;-70
2022/07/23 16:51:46;;;;;;;6.20;0.88;;;;;;;22.09;78.35;101912.41;10419666;28;20038;-68
2022/07/23 16:56:46;;;;;;;4.00;0.88;;;;;;;21.93;80.15;101911.88;10405595;28;20037;-68
2022/07/23 17:01:47;;;;;;;1.67;0.70;;;;;;;21.67;84.11;101927.44;10366601;28;20038;-69
2022/07/23 17:06:47;;;;;;;2.55;0.70;;;;;;;21.36;86.88;101922.25;10367830;28;20313;-68
2022/07/23 17:11:48;;;;;;;4.72;1.10;;;;;;;21.24;87.08;101924.66;10370775;28;20168;-69
2022/07/23 17:16:48;;;;;;;2.67;0.60;;;;;;;21.01;89.49;101930.00;10377866;28;20049;-68
2022/07/23 17:21:49;;;;;;;2.67;0.88;;;;;;;20.79;90.97;101929.72;10377861;28;20042;-68
2022/07/23 17:26:49;;;;;;;4.13;1.17;;;;;;;20.47;92.23;101933.97;10376773;28;20026;-67
2022/07/23 17:31:50;;;;;;;3.95;0.93;;;;;;;20.18;93.52;101932.00;10377838;28;20410;-68
2022/07/23 17:36:51;;;;;;;6.03;0.85;;;;;;;20.06;99.33;101929.59;10396578;28;20041;-67
2022/07/23 17:41:51;;;;;;;2.10;1.00;;;;;;;20.07;100.00;101936.00;10417921;28;20041;-68
2022/07/23 17:46:52;;;;;;;3.00;0.80;;;;;;;20.03;100.00;101932.13;10418290;28;20060;-67
2022/07/23 17:51:52;;;;;;;3.00;0.80;;;;;;;20.00;100.00;101938.31;10418090;28;20053;-67
2022/07/23 17:56:53;;;;;;;4.32;1.30;;;;;;;19.96;100.00;101936.09;10417907;28;20049;-67
2022/07/23 18:01:53;;;;;;;1.95;0.65;;;;;;;19.82;100.00;101939.84;10415293;28;20049;-67
2022/07/23 18:06:54;;;;;;;6.90;1.05;;;;;;;19.69;100.00;101946.91;10415298;28;20045;-67
2022/07/23 18:11:55;;;;;;;1.80;1.15;;;;;;;19.62;100.00;101935.22;10417461;28;20061;-67
2022/07/23 18:16:55;;;;;;;2.55;0.65;;;;;;;19.53;100.00;101935.84;10416065;28;20087;-68
2022/07/23 18:21:56;;;;;;;1.50;0.95;;;;;;;19.48;100.00;101935.84;10423659;28;20054;-67
2022/07/23 18:26:56;;;;;;;2.45;1.38;;;;;;;19.41;100.00;101940.94;10424357;28;20037;-69
2022/07/23 18:31:57;;;;;;;4.13;1.02;;;;;;;19.33;100.00;101935.97;10424851;28;20045;-69
2022/07/23 18:36:57;;;;;;;2.58;0.80;;;;;;;19.22;100.00;101942.72;10410001;28;20037;-68
2022/07/23 18:41:58;;;;;;;2.35;1.52;;;;;;;19.11;100.00;101953.91;10384818;28;20433;-64
2022/07/23 18:46:58;;;;;;;3.65;1.00;;;;;;;18.99;100.00;101947.81;10397419;28;20049;-67
2022/07/23 18:51:59;;;;;;;2.72;1.35;;;;;;;18.83;100.00;101947.06;10444219;28;20041;-67
2022/07/23 18:57:00;;;;;;;2.40;0.93;;;;;;;18.68;100.00;101947.91;10443820;28;20149;-66
2022/07/23 19:02:00;;;;;;;4.82;0.90;;;;;;;18.61;100.00;101955.72;10442461;28;20041;-67
2022/07/23 19:07:01;;;;;;;2.40;1.48;;;;;;;18.44;100.00;101946.81;10444098;28;20037;-65
2022/07/23 19:12:01;;;;;;;3.55;1.23;;;;;;;18.32;100.00;101956.34;10444029;28;20061;-67
2022/07/23 19:17:02;;;;;;;2.72;1.05;;;;;;;18.00;100.00;101919.56;10443699;28;20053;-67
2022/07/23 19:22:05;;;;;;;4.35;1.10;;;;;;;18.07;100.00;101961.94;10441980;28;20033;-66
2022/07/23 19:27:06;;;;;;;3.50;0.90;;;;;;;17.89;100.00;101960.53;10455161;28;20044;-67
2022/07/23 19:32:06;;;;;;;1.52;1.17;;;;;;;17.68;100.00;101954.06;10462973;28;20037;-67
2022/07/23 19:37:14;;;;;;;3.78;1.08;;;;;;;17.51;100.00;101963.50;10463862;28;20037;-67
2022/07/23 19:42:15;;;;;;;5.20;1.70;;;;;;;17.33;100.00;101969.56;10447879;28;20275;-67
2022/07/23 19:47:15;;;;;;;4.55;1.58;;;;;;;17.17;100.00;101970.63;10458262;28;20334;-67
2022/07/23 19:52:16;;;;;;;3.55;1.63;;;;;;;17.02;100.00;101971.41;10461197;28;20040;-67
2022/07/23 19:57:16;;;;;;;6.60;1.65;;;;;;;16.92;100.00;101963.84;10461243;28;20068;-67
2022/07/23 20:02:17;;;;;;;3.90;1.50;;;;;;;16.81;100.00;101967.69;10461776;28;20068;-68
2022/07/23 20:07:17;;;;;;;5.65;2.30;;;;;;;16.69;100.00;101965.91;10462124;28;20558;-66
2022/07/23 20:12:18;;;;;;;3.30;2.22;;;;;;;16.65;100.00;101961.16;10462991;28;20045;-67
2022/07/23 20:17:18;;;;;;;3.85;2.22;;;;;;;16.58;100.00;101953.06;10462260;28;20048;-67
2022/07/23 20:22:19;;;;;;;2.33;1.77;;;;;;;16.57;100.00;101958.88;10463540;28;20052;-68
2022/07/23 20:27:19;;;;;;;5.15;1.90;;;;;;;16.51;100.00;101958.81;10461826;28;20041;-68
2022/07/23 20:32:20;;;;;;;3.10;1.73;;;;;;;16.44;100.00;101962.97;10493781;28;20106;-68
2022/07/23 20:37:20;;;;;;;3.97;1.70;;;;;;;16.33;100.00;101962.06;10477137;28;20489;-66
2022/07/23 20:42:21;;;;;;;3.10;1.67;;;;;;;16.28;100.00;101959.22;10458267;28;20044;-68
2022/07/23 20:47:21;;;;;;;11.90;5.35;;;;;;;16.24;100.00;101952.53;10461116;28;20063;-68
2022/07/23 20:52:22;;;;;;;5.25;1.77;;;;;;;16.12;100.00;101938.81;10457539;28;20500;-67
2022/07/23 20:57:22;;;;;;;6.65;2.10;;;;;;;16.09;100.00;101962.41;10434583;28;20045;-64
2022/07/23 21:02:23;;;;;;;3.45;1.77;;;;;;;16.05;100.00;101964.03;10455910;28;20521;-68
2022/07/23 21:07:23;;;;;;;2.45;1.70;;;;;;;15.92;100.00;101976.44;10460504;28;20515;-67
2022/07/23 21:12:25;;;;;;;5.18;2.38;;;;;;;15.83;100.00;101966.91;10417644;28;20096;-68
2022/07/23 21:17:25;;;;;;;4.20;2.13;;;;;;;15.83;100.00;101953.00;10417748;28;20034;-67
2022/07/23 21:22:25;;;;;;;5.18;2.20;;;;;;;15.81;100.00;101966.31;10449688;28;20041;-68
2022/07/23 21:27:26;;;;;;;5.95;1.90;;;;;;;15.82;100.00;101956.06;10459650;28;20033;-68
2022/07/23 21:32:27;;;;;;;6.40;2.30;;;;;;;15.76;100.00;101963.50;10439766;28;20051;-67
2022/07/23 21:37:27;;;;;;;3.88;2.22;;;;;;;15.67;100.00;101959.50;10456258;28;20466;-68
2022/07/23 21:42:28;;;;;;;3.80;3.28;;;;;;;15.59;100.00;101962.75;10456618;28;20505;-68
2022/07/23 21:47:28;;;;;;;4.85;3.10;;;;;;;15.08;100.00;101886.16;10457898;28;20049;-67
2022/07/23 21:52:29;;;;;;;5.07;3.03;;;;;;;15.54;100.00;101966.28;10458921;28;20361;-64
2022/07/23 21:57:30;;;;;;;7.57;3.38;;;;;;;15.47;100.00;101966.50;10458758;28;20068;-68
2022/07/23 22:02:30;;;;;;;3.50;2.88;;;;;;;15.36;100.00;101964.72;10456323;28;20475;-68
2022/07/23 22:07:32;;;;;;;3.90;3.22;;;;;;;15.32;100.00;101972.72;10456769;28;20116;-68
2022/07/23 22:12:32;;;;;;;4.78;3.25;;;;;;;15.26;100.00;101959.06;10457733;28;20060;-68
2022/07/23 22:17:33;;;;;;;7.20;2.60;;;;;;;15.20;100.00;101954.56;10458820;28;20041;-68
2022/07/23 22:22:33;;;;;;;5.97;3.22;;;;;;;15.06;100.00;101943.00;10457959;28;20033;-68
2022/07/23 22:27:34;;;;;;;3.78;2.90;;;;;;;15.06;100.00;101954.09;10456096;28;20041;-68
2022/07/23 22:32:34;;;;;;;6.38;3.13;;;;;;;14.97;100.00;101950.94;10458299;28;20045;-68
2022/07/23 22:37:35;;;;;;;5.43;3.30;;;;;;;14.87;100.00;101940.53;10457097;28;20040;-67
2022/07/23 22:42:35;;;;;;;8.10;3.75;;;;;;;14.89;100.00;101943.06;10454663;28;20045;-68
2022/07/23 22:47:36;;;;;;;5.65;3.53;;;;;;;14.80;100.00;101930.72;10456297;28;20390;-66
2022/07/23 22:52:36;;;;;;;6.28;3.72;;;;;;;14.84;100.00;101940.22;10456446;28;20068;-68
2022/07/23 22:57:37;;;;;;;6.28;3.88;;;;;;;14.81;100.00;101933.25;10457578;28;20041;-68